createdAt,value
2024-04-11T00:01:27.424Z,2.03
2024-04-11T00:03:58.204Z,1.88
2024-04-11T00:06:27.676Z,2.05
2024-04-11T00:08:58.246Z,2.35
2024-04-11T00:11:26.182Z,1.77
2024-04-11T00:13:59.390Z,2.40
2024-04-11T00:16:27.280Z,2.20
2024-04-11T00:18:57.779Z,2.00
2024-04-11T00:21:26.853Z,1.90
2024-04-11T00:23:57.511Z,1.92
2024-04-11T00:26:25.774Z,2.15
2024-04-11T00:28:58.753Z,2.25
2024-04-11T00:31:27.384Z,2.50
2024-04-11T00:34:15.015Z,2.55
2024-04-11T00:36:45.757Z,2.25
2024-04-11T00:39:19.996Z,1.88
2024-04-11T00:41:48.916Z,2.28
2024-04-11T00:44:22.868Z,2.20
2024-04-11T00:46:52.789Z,2.22
2024-04-11T00:49:25.228Z,2.67
2024-04-11T00:51:53.832Z,2.42
2024-04-11T00:54:24.960Z,2.13
2024-04-11T00:56:53.896Z,2.25
2024-04-11T00:59:26.967Z,1.65
2024-04-11T01:01:54.799Z,2.42
2024-04-11T01:04:26.647Z,2.17
2024-04-11T01:07:10.755Z,1.75
2024-04-11T01:09:44.971Z,2.10
2024-04-11T01:12:13.666Z,1.95
2024-04-11T01:14:48.266Z,1.70
2024-04-11T01:17:17.659Z,1.90
2024-04-11T01:19:48.793Z,2.53
2024-04-11T01:22:17.048Z,2.30
2024-04-11T01:24:50.119Z,1.85
2024-04-11T01:27:18.336Z,2.35
2024-04-11T01:29:50.984Z,1.98
2024-04-11T01:32:19.349Z,2.10
2024-04-11T01:34:58.223Z,2.25
2024-04-11T01:37:26.222Z,2.03
2024-04-11T01:39:59.784Z,1.85
2024-04-11T01:42:27.614Z,2.30
2024-04-11T01:44:59.524Z,2.53
2024-04-11T01:47:28.123Z,2.03
2024-04-11T01:49:59.350Z,2.00
2024-04-11T01:52:28.103Z,2.08
2024-04-11T01:55:02.890Z,2.40
2024-04-11T01:57:31.025Z,2.25
2024-04-11T02:00:01.548Z,2.03
2024-04-11T02:02:39.770Z,1.90
2024-04-11T02:05:11.085Z,2.78
2024-04-11T02:07:39.503Z,2.38
2024-04-11T02:10:13.481Z,2.28
2024-04-11T02:12:43.227Z,2.95
2024-04-11T02:15:15.525Z,1.88
2024-04-11T02:17:43.507Z,2.03
2024-04-11T02:20:14.840Z,1.75
2024-04-11T02:22:42.641Z,2.30
2024-04-11T02:25:16.127Z,1.73
2024-04-11T02:27:44.185Z,2.33
2024-04-11T02:30:15.471Z,2.00
2024-04-11T02:32:44.213Z,2.30
2024-04-11T02:35:15.660Z,2.13
2024-04-11T02:37:43.496Z,1.48
2024-04-11T02:40:17.041Z,1.92
2024-04-11T02:42:45.349Z,2.00
2024-04-11T02:45:16.478Z,1.63
2024-04-11T02:47:45.008Z,1.75
2024-04-11T02:50:17.645Z,2.03
2024-04-11T02:52:46.005Z,1.90
2024-04-11T02:55:19.549Z,1.77
2024-04-11T02:57:48.083Z,2.20
2024-04-11T03:00:20.522Z,1.83
2024-04-11T03:02:48.576Z,1.80
2024-04-11T03:05:20.786Z,1.80
2024-04-11T03:07:50.425Z,1.55
2024-04-11T03:10:24.256Z,2.17
2024-04-11T03:12:52.523Z,1.77
2024-04-11T03:15:22.960Z,1.63
2024-04-11T03:17:51.772Z,1.80
2024-04-11T03:20:22.473Z,1.98
2024-04-11T03:22:50.571Z,1.70
2024-04-11T03:25:23.623Z,1.70
2024-04-11T03:27:52.117Z,1.75
2024-04-11T03:30:22.492Z,1.55
2024-04-11T03:32:51.873Z,2.10
2024-04-11T03:35:23.211Z,1.92
2024-04-11T03:37:53.111Z,2.15
2024-04-11T03:40:26.159Z,1.90
2024-04-11T03:42:57.637Z,1.60
2024-04-11T03:45:32.020Z,1.58
2024-04-11T03:48:06.555Z,1.80
2024-04-11T03:50:37.884Z,1.95
2024-04-11T03:53:06.863Z,2.00
2024-04-11T03:55:47.812Z,1.65
2024-04-11T03:58:17.766Z,2.13
2024-04-11T04:00:48.888Z,1.83
2024-04-11T04:03:16.987Z,2.17
2024-04-11T04:05:48.238Z,2.08
2024-04-11T04:08:16.446Z,1.85
2024-04-11T04:10:49.460Z,1.63
2024-04-11T04:13:17.295Z,1.95
2024-04-11T04:15:48.202Z,1.83
2024-04-11T04:18:16.294Z,1.85
2024-04-11T04:20:46.944Z,2.28
2024-04-11T04:23:14.766Z,2.00
2024-04-11T04:25:45.394Z,1.73
2024-04-11T04:28:19.868Z,1.92
2024-04-11T04:30:50.880Z,1.88
2024-04-11T04:33:19.289Z,2.53
2024-04-11T04:35:50.744Z,1.83
2024-04-11T04:38:19.187Z,1.55
2024-04-11T04:40:49.839Z,2.05
2024-04-11T04:43:20.193Z,1.70
2024-04-11T04:45:50.870Z,2.22
2024-04-11T04:48:19.509Z,2.22
2024-04-11T04:50:50.575Z,1.55
2024-04-11T04:53:18.574Z,1.92
2024-04-11T04:55:51.227Z,1.90
2024-04-11T04:58:22.893Z,1.92
2024-04-11T05:00:53.697Z,1.95
2024-04-11T05:03:21.656Z,2.30
2024-04-11T05:05:52.271Z,2.10
2024-04-11T05:08:24.550Z,1.30
2024-04-11T05:10:58.369Z,2.05
2024-04-11T05:13:31.308Z,1.92
2024-04-11T05:16:07.820Z,1.80
2024-04-11T05:18:38.663Z,1.50
2024-04-11T05:21:10.734Z,1.70
2024-04-11T05:23:40.213Z,1.67
2024-04-11T05:26:16.325Z,2.00
2024-04-11T05:28:48.816Z,2.28
2024-04-11T05:31:26.972Z,2.13
2024-04-11T05:33:55.852Z,1.98
2024-04-11T05:36:30.839Z,1.42
2024-04-11T05:38:59.377Z,2.25
2024-04-11T05:41:30.163Z,2.20
2024-04-11T05:44:00.900Z,1.80
2024-04-11T05:46:31.899Z,2.08
2024-04-11T05:49:00.232Z,1.88
2024-04-11T05:51:31.775Z,1.55
2024-04-11T05:53:59.898Z,2.20
2024-04-11T05:56:30.375Z,1.45
2024-04-11T05:59:00.861Z,2.20
2024-04-11T06:01:35.852Z,1.77
2024-04-11T06:04:07.237Z,1.88
2024-04-11T06:06:38.652Z,1.70
2024-04-11T06:09:09.601Z,2.58
2024-04-11T06:11:41.443Z,1.67
2024-04-11T06:14:12.054Z,2.08
2024-04-11T06:16:43.584Z,1.90
2024-04-11T06:19:11.859Z,1.90
2024-04-11T06:21:46.628Z,2.20
2024-04-11T06:24:16.495Z,2.30
2024-04-11T06:26:47.241Z,1.67
2024-04-11T06:29:23.844Z,2.78
2024-04-11T06:31:54.758Z,1.63
2024-04-11T06:34:23.367Z,1.70
2024-04-11T06:36:55.399Z,1.70
2024-04-11T06:39:25.712Z,2.03
2024-04-11T06:41:56.660Z,2.50
2024-04-11T06:44:27.930Z,1.95
2024-04-11T06:46:58.758Z,2.00
2024-04-11T06:49:27.298Z,1.70
2024-04-11T06:51:58.022Z,1.90
2024-04-11T06:54:27.554Z,2.00
2024-04-11T06:56:58.726Z,1.58
2024-04-11T06:59:29.904Z,1.80
2024-04-11T07:02:01.714Z,1.65
2024-04-11T07:04:31.312Z,1.75
2024-04-11T07:07:09.650Z,1.42
2024-04-11T07:09:39.468Z,1.50
2024-04-11T07:12:12.294Z,1.70
2024-04-11T07:14:43.283Z,1.40
2024-04-11T07:17:15.625Z,1.48
2024-04-11T07:19:44.350Z,2.00
2024-04-11T07:22:19.617Z,1.92
2024-04-11T07:24:47.849Z,1.77
2024-04-11T07:27:20.367Z,1.45
2024-04-11T07:29:50.957Z,1.23
2024-04-11T07:32:22.544Z,1.50
2024-04-11T07:34:51.097Z,1.92
2024-04-11T07:37:26.816Z,2.10
2024-04-11T07:39:55.034Z,1.60
2024-04-11T07:42:45.569Z,1.60
2024-04-11T07:45:19.310Z,1.90
2024-04-11T07:47:57.105Z,1.25
2024-04-11T07:50:27.787Z,1.83
2024-04-11T07:52:58.766Z,1.48
2024-04-11T07:55:28.623Z,1.48
2024-04-11T07:57:59.859Z,2.60
2024-04-11T08:00:30.371Z,1.80
2024-04-11T08:03:04.095Z,1.60
2024-04-11T08:05:32.192Z,1.70
2024-04-11T08:08:02.623Z,1.50
2024-04-11T08:10:33.900Z,2.22
2024-04-11T08:13:01.834Z,1.80
2024-04-11T08:15:35.577Z,1.85
2024-04-11T08:18:04.896Z,1.83
2024-04-11T08:20:35.984Z,2.03
2024-04-11T08:23:11.748Z,2.20
2024-04-11T08:25:45.882Z,1.45
2024-04-11T08:28:14.834Z,1.50
2024-04-11T08:30:49.639Z,1.63
2024-04-11T08:33:17.557Z,1.70
2024-04-11T08:35:48.846Z,2.05
2024-04-11T08:38:16.919Z,1.75
2024-04-11T08:40:50.954Z,1.42
2024-04-11T08:43:21.375Z,1.67
2024-04-11T08:45:54.395Z,1.58
2024-04-11T08:48:23.300Z,1.50
2024-04-11T08:50:57.465Z,2.15
2024-04-11T08:53:26.593Z,1.90
2024-04-11T08:56:01.510Z,1.65
2024-04-11T08:58:30.547Z,2.08
2024-04-11T09:01:06.131Z,1.50
2024-04-11T09:03:34.070Z,1.42
2024-04-11T09:06:06.160Z,1.52
2024-04-11T09:08:36.737Z,1.80
2024-04-11T09:11:06.377Z,1.85
2024-04-11T09:13:37.477Z,2.00
2024-04-11T09:16:10.265Z,1.73
2024-04-11T09:18:41.587Z,1.77
2024-04-11T09:21:09.721Z,2.00
2024-04-11T09:23:48.929Z,1.77
2024-04-11T09:26:18.618Z,1.80
2024-04-11T09:28:49.576Z,1.77
2024-04-11T09:31:20.680Z,1.92
2024-04-11T09:33:55.915Z,2.22
2024-04-11T09:36:29.620Z,1.90
2024-04-11T09:39:06.828Z,2.20
2024-04-11T09:41:36.434Z,2.10
2024-04-11T09:44:09.311Z,2.00
2024-04-11T09:46:44.729Z,2.80
2024-04-11T09:49:18.157Z,2.88
2024-04-11T09:51:47.214Z,2.17
2024-04-11T09:54:17.846Z,2.22
2024-04-11T09:56:48.165Z,2.60
2024-04-11T09:59:20.669Z,2.45
2024-04-11T10:01:52.414Z,2.00
2024-04-11T10:04:25.749Z,2.55
2024-04-11T10:06:54.226Z,2.83
2024-04-11T10:09:31.241Z,2.03
2024-04-11T10:12:05.851Z,2.42
2024-04-11T10:14:40.722Z,2.63
2024-04-11T10:17:14.823Z,2.38
2024-04-11T10:19:49.317Z,2.65
2024-04-11T10:22:26.256Z,2.38
2024-04-11T10:25:07.450Z,2.50
2024-04-11T10:27:39.128Z,2.65
2024-04-11T10:30:13.514Z,2.72
2024-04-11T10:32:48.668Z,2.42
2024-04-11T10:35:24.906Z,2.80
2024-04-11T10:37:56.379Z,2.78
2024-04-11T10:40:27.609Z,2.58
2024-04-11T10:43:13.854Z,2.75
2024-04-11T10:45:47.276Z,2.45
2024-04-11T10:48:19.133Z,3.00
2024-04-11T10:50:50.525Z,3.00
2024-04-11T10:53:22.630Z,3.28
2024-04-11T10:55:56.920Z,3.13
2024-04-11T10:58:30.014Z,3.15
2024-04-11T11:01:13.370Z,2.88
2024-04-11T11:03:49.407Z,2.90
2024-04-11T11:06:30.344Z,2.55
2024-04-11T11:09:11.939Z,2.92
2024-04-11T11:11:44.265Z,3.28
2024-04-11T11:14:12.690Z,2.83
2024-04-11T11:16:44.811Z,2.50
2024-04-11T11:19:17.629Z,3.20
2024-04-11T11:21:52.383Z,3.35
2024-04-11T11:24:26.006Z,2.80
2024-04-11T11:27:00.340Z,3.10
2024-04-11T11:29:29.093Z,3.10
2024-04-11T11:32:05.936Z,3.20
2024-04-11T11:34:37.834Z,2.75
2024-04-11T11:37:14.188Z,3.40
2024-04-11T11:39:44.316Z,2.97
2024-04-11T11:42:24.637Z,3.20
2024-04-11T11:45:08.336Z,3.40
2024-04-11T11:47:40.026Z,2.90
2024-04-11T11:50:18.362Z,3.00
2024-04-11T11:52:54.470Z,3.25
2024-04-11T11:55:27.812Z,3.03
2024-04-11T11:58:05.584Z,3.03
2024-04-11T12:00:36.022Z,3.60
2024-04-11T12:03:21.229Z,2.88
2024-04-11T12:06:00.615Z,3.13
2024-04-11T12:08:34.435Z,3.35
2024-04-11T12:11:17.986Z,4.13
2024-04-11T12:13:53.188Z,3.85
2024-04-11T12:16:24.920Z,3.13
2024-04-11T12:18:58.563Z,3.15
2024-04-11T12:21:45.991Z,3.35
2024-04-11T12:24:16.967Z,3.13
2024-04-11T12:26:44.938Z,3.30
2024-04-11T12:29:19.347Z,3.47
2024-04-11T12:31:49.372Z,3.58
2024-04-11T12:34:21.207Z,3.72
2024-04-11T12:36:58.674Z,3.65
2024-04-11T12:39:42.660Z,3.60
2024-04-11T12:42:12.679Z,3.63
2024-04-11T12:44:46.561Z,3.80
2024-04-11T12:47:24.334Z,3.80
2024-04-11T12:49:59.659Z,3.50
2024-04-11T12:52:31.667Z,3.15
2024-04-11T12:55:03.422Z,3.25
2024-04-11T12:57:31.688Z,4.15
2024-04-11T13:00:09.820Z,4.15
2024-04-11T13:02:42.218Z,3.80
2024-04-11T13:05:15.627Z,3.42
2024-04-11T13:07:49.750Z,3.08
2024-04-11T13:10:17.608Z,3.30
2024-04-11T13:12:53.492Z,3.35
2024-04-11T13:15:32.824Z,4.80
2024-04-11T13:18:03.503Z,3.63
2024-04-11T13:20:36.135Z,3.58
2024-04-11T13:23:22.512Z,3.65
2024-04-11T13:25:55.001Z,2.90
2024-04-11T13:28:30.162Z,3.13
2024-04-11T13:30:58.484Z,3.38
2024-04-11T13:33:32.519Z,3.30
2024-04-11T13:36:05.547Z,3.22
2024-04-11T13:38:43.630Z,2.72
2024-04-11T13:41:38.320Z,3.30
2024-04-11T13:44:08.857Z,3.45
2024-04-11T13:46:39.304Z,2.90
2024-04-11T13:49:26.826Z,3.22
2024-04-11T13:52:19.997Z,3.00
2024-04-11T13:54:51.294Z,2.70
2024-04-11T13:57:24.637Z,3.05
2024-04-11T13:59:56.463Z,2.83
2024-04-11T14:02:48.201Z,2.90
2024-04-11T14:05:31.353Z,2.42
2024-04-11T14:08:02.745Z,2.97
2024-04-11T14:10:34.551Z,2.50
2024-04-11T14:13:11.158Z,2.58
2024-04-11T14:15:39.079Z,2.40
2024-04-11T14:18:19.263Z,2.65
2024-04-11T14:20:52.156Z,2.35
2024-04-11T14:23:45.663Z,2.42
2024-04-11T14:26:26.203Z,2.03
2024-04-11T14:28:56.749Z,2.20
2024-04-11T14:31:32.030Z,3.63
2024-04-11T14:34:18.486Z,2.10
2024-04-11T14:37:01.325Z,1.88
2024-04-11T14:39:35.400Z,1.63
2024-04-11T14:42:07.450Z,1.88
2024-04-11T14:44:45.811Z,2.35
2024-04-11T14:47:19.506Z,1.70
2024-04-11T14:49:51.111Z,1.67
2024-04-11T14:52:21.040Z,2.05
2024-04-11T14:54:53.658Z,1.92
2024-04-11T14:57:24.735Z,1.92
2024-04-11T15:00:00.066Z,1.98
2024-04-11T15:02:30.788Z,1.80
2024-04-11T15:05:11.952Z,1.92
2024-04-11T15:07:42.559Z,1.73
2024-04-11T15:10:27.940Z,2.00
2024-04-11T15:12:59.418Z,2.17
2024-04-11T15:15:42.860Z,1.77
2024-04-11T15:18:13.120Z,2.47
2024-04-11T15:20:52.876Z,2.33
2024-04-11T15:23:29.677Z,2.50
2024-04-11T15:26:01.986Z,2.15
2024-04-11T15:28:33.174Z,1.63
2024-04-11T15:31:17.085Z,1.95
2024-04-11T15:33:55.709Z,1.92
2024-04-11T15:36:35.718Z,1.70
2024-04-11T15:39:04.286Z,1.80
2024-04-11T15:41:35.054Z,1.42
2024-04-11T15:44:06.711Z,1.70
2024-04-11T15:46:40.663Z,1.35
2024-04-11T15:49:09.132Z,1.60
2024-04-11T15:51:41.527Z,1.33
2024-04-11T15:54:18.025Z,1.55
2024-04-11T15:56:54.826Z,1.27
2024-04-11T15:59:28.699Z,0.95
2024-04-11T16:02:07.286Z,0.80
2024-04-11T16:04:42.701Z,0.63
2024-04-11T16:07:15.394Z,0.60
2024-04-11T16:09:47.654Z,0.70
2024-04-11T16:12:20.235Z,0.75
2024-04-11T16:14:57.829Z,0.70
2024-04-11T16:17:34.370Z,0.80
2024-04-11T16:20:04.093Z,0.60
2024-04-11T16:22:36.723Z,0.70
2024-04-11T16:25:08.143Z,0.70
2024-04-11T16:27:38.808Z,0.70
2024-04-11T16:30:13.256Z,0.60
2024-04-11T16:32:44.746Z,0.88
2024-04-11T16:35:13.021Z,0.82
2024-04-11T16:37:48.188Z,1.02
2024-04-11T16:40:25.148Z,0.93
2024-04-11T16:42:56.184Z,0.70
2024-04-11T16:45:27.084Z,0.98
2024-04-11T16:48:00.987Z,1.10
2024-04-11T16:50:38.153Z,1.20
2024-04-11T16:53:11.191Z,1.08
2024-04-11T16:55:42.055Z,1.05
2024-04-11T16:58:25.865Z,1.23
2024-04-11T17:01:07.525Z,1.10
2024-04-11T17:03:39.484Z,0.88
2024-04-11T17:06:11.974Z,1.17
2024-04-11T17:08:46.961Z,1.00
2024-04-11T17:11:19.824Z,1.70
2024-04-11T17:13:50.872Z,1.67
2024-04-11T17:16:41.515Z,1.30
2024-04-11T17:19:30.083Z,1.60
2024-04-11T17:21:58.145Z,1.13
2024-04-11T17:24:36.396Z,1.20
2024-04-11T17:27:08.404Z,1.73
2024-04-11T17:29:48.788Z,1.30
2024-04-11T17:32:24.838Z,1.27
2024-04-11T17:34:57.292Z,1.45
2024-04-11T17:37:41.405Z,1.65
2024-04-11T17:40:29.666Z,1.63
2024-04-11T17:43:03.187Z,2.08
2024-04-11T17:45:31.445Z,2.03
2024-04-11T17:48:11.889Z,1.70
2024-04-11T17:50:40.493Z,2.40
2024-04-11T17:53:11.244Z,2.15
2024-04-11T17:55:40.174Z,2.00
2024-04-11T17:58:14.394Z,1.98
2024-04-11T18:00:42.933Z,1.63
2024-04-11T18:03:16.935Z,2.03
2024-04-11T18:05:49.769Z,1.42
2024-04-11T18:08:23.644Z,1.25
2024-04-11T18:10:52.967Z,1.88
2024-04-11T18:13:24.599Z,1.30
2024-04-11T18:16:01.649Z,1.42
2024-04-11T18:18:40.657Z,1.30
2024-04-11T18:21:12.945Z,1.55
2024-04-11T18:23:43.819Z,1.83
2024-04-11T18:26:16.419Z,1.45
2024-04-11T18:28:47.839Z,1.48
2024-04-11T18:31:18.259Z,1.58
2024-04-11T18:33:54.374Z,1.75
2024-04-11T18:36:26.786Z,1.67
2024-04-11T18:39:02.263Z,1.60
2024-04-11T18:41:47.580Z,2.00
2024-04-11T18:44:22.966Z,1.30
2024-04-11T18:46:57.840Z,1.90
2024-04-11T18:49:40.207Z,1.42
2024-04-11T18:52:14.381Z,1.35
2024-04-11T18:54:46.726Z,1.92
2024-04-11T18:57:14.753Z,2.17
2024-04-11T18:59:45.663Z,1.33
2024-04-11T19:02:14.738Z,1.60
2024-04-11T19:04:47.847Z,1.88
2024-04-11T19:07:22.405Z,1.65
2024-04-11T19:10:14.606Z,1.98
2024-04-11T19:12:43.140Z,2.00
2024-04-11T19:15:17.385Z,1.65
2024-04-11T19:17:54.450Z,1.88
2024-04-11T19:20:32.194Z,1.88
2024-04-11T19:23:06.004Z,1.30
2024-04-11T19:25:38.322Z,1.77
2024-04-11T19:28:15.481Z,1.80
2024-04-11T19:30:47.664Z,1.75
2024-04-11T19:33:25.541Z,2.45
2024-04-11T19:36:01.358Z,1.58
2024-04-11T19:38:38.834Z,1.65
2024-04-11T19:41:11.100Z,3.20
2024-04-11T19:43:43.009Z,2.03
2024-04-11T19:46:14.968Z,1.40
2024-04-11T19:48:49.900Z,1.65
2024-04-11T19:51:24.942Z,1.80
2024-04-11T19:53:56.049Z,1.48
2024-04-11T19:56:35.615Z,1.80
2024-04-11T19:59:04.815Z,1.38
2024-04-11T20:01:49.430Z,1.77
2024-04-11T20:04:25.270Z,1.73
2024-04-11T20:07:10.332Z,1.85
2024-04-11T20:09:39.322Z,1.42
2024-04-11T20:12:29.928Z,1.88
2024-04-11T20:15:19.090Z,1.23
2024-04-11T20:18:00.276Z,1.83
2024-04-11T20:20:32.230Z,1.50
2024-04-11T20:23:10.708Z,2.03
2024-04-11T20:25:42.344Z,1.58
2024-04-11T20:28:22.760Z,1.63
2024-04-11T20:30:56.607Z,1.90
2024-04-11T20:33:32.574Z,1.83
2024-04-11T20:36:15.046Z,1.30
2024-04-11T20:39:10.879Z,1.70
2024-04-11T20:41:42.873Z,1.65
2024-04-11T20:44:29.869Z,2.22
2024-04-11T20:47:12.943Z,2.40
2024-04-11T20:50:14.031Z,1.65
2024-04-11T20:53:00.641Z,1.55
2024-04-11T20:55:52.374Z,1.83
2024-04-11T20:58:39.211Z,1.85
2024-04-11T21:01:26.476Z,1.52
2024-04-11T21:04:13.326Z,1.85
2024-04-11T21:07:11.357Z,1.50
2024-04-11T21:10:00.197Z,1.65
2024-04-11T21:12:49.386Z,1.90
2024-04-11T21:15:36.331Z,1.83
2024-04-11T21:18:23.215Z,1.52
2024-04-11T21:21:09.878Z,2.05
2024-04-11T21:23:56.671Z,1.65
2024-04-11T21:26:43.478Z,1.42
2024-04-11T21:29:37.665Z,1.77
2024-04-11T21:32:24.800Z,1.52
2024-04-11T21:34:59.071Z,1.80
2024-04-11T21:37:36.446Z,1.38
2024-04-11T21:40:14.782Z,1.63
2024-04-11T21:42:43.569Z,1.58
2024-04-11T21:45:17.548Z,1.77
2024-04-11T21:47:46.358Z,1.65
2024-04-11T21:50:18.769Z,1.85
2024-04-11T21:52:52.096Z,1.70
2024-04-11T21:55:22.988Z,2.20
2024-04-11T21:57:52.856Z,1.90
2024-04-11T22:00:46.754Z,1.50
2024-04-11T22:03:17.102Z,1.30
2024-04-11T22:05:51.703Z,1.58
2024-04-11T22:08:19.881Z,1.83
2024-04-11T22:10:54.849Z,1.65
2024-04-11T22:13:23.206Z,1.90
2024-04-11T22:16:04.512Z,1.90
2024-04-11T22:18:34.673Z,1.40
2024-04-11T22:21:24.293Z,1.60
2024-04-11T22:24:00.225Z,1.25
2024-04-11T22:26:32.955Z,1.85
2024-04-11T22:29:05.996Z,1.50
2024-04-11T22:31:40.007Z,1.80
2024-04-11T22:34:16.360Z,1.52
2024-04-11T22:36:50.864Z,1.70
2024-04-11T22:39:21.808Z,1.70
2024-04-11T22:41:57.592Z,1.25
2024-04-11T22:44:25.704Z,1.27
2024-04-11T22:47:02.994Z,1.58
2024-04-11T22:49:33.411Z,1.90
2024-04-11T22:52:05.367Z,1.90
2024-04-11T22:54:33.106Z,1.70
2024-04-11T22:57:06.578Z,1.42
2024-04-11T22:59:39.175Z,1.63
2024-04-11T23:02:19.728Z,2.08
2024-04-11T23:04:49.881Z,1.55
2024-04-11T23:07:41.373Z,1.58
2024-04-11T23:10:21.699Z,1.27
2024-04-11T23:12:50.436Z,1.73
2024-04-11T23:15:21.680Z,1.80
2024-04-11T23:17:59.084Z,1.65
2024-04-11T23:20:34.574Z,1.92
2024-04-11T23:23:17.334Z,1.90
2024-04-11T23:25:51.410Z,2.15
2024-04-11T23:28:21.573Z,1.55
2024-04-11T23:30:53.438Z,1.48
2024-04-11T23:33:26.846Z,1.67
2024-04-11T23:36:05.614Z,1.67
2024-04-11T23:38:35.051Z,1.58
2024-04-11T23:41:12.163Z,1.35
2024-04-11T23:43:50.582Z,1.77
2024-04-11T23:46:32.171Z,2.08
2024-04-11T23:49:07.950Z,2.15
2024-04-11T23:51:47.979Z,1.45
2024-04-11T23:54:21.230Z,1.75
2024-04-11T23:57:02.174Z,1.55
2024-04-11T23:59:39.773Z,1.77
